Time;durP1;ratioP1;P1;durP2;ratioP2;P2;SDS_P1;SDS_P2;PMS_P1;PMS_P2;Temp;Humidity;BMP_temperature;BMP_pressure;BME280_temperature;BME280_humidity;BME280_pressure;Samples;Min_cycle;Max_cycle;Signal;HPM_P1;HPM_P2
2023/04/30 00:01:54;;;;;;;21.92;16.13;;;;;;;4.99;100.00;98984.41;4179667;28;20061;-71
2023/04/30 00:03:54;;;;;;;22.35;14.82;;;;;;;5.07;100.00;98989.06;4182981;28;20041;-71
2023/04/30 00:05:55;;;;;;;22.42;15.02;;;;;;;5.10;100.00;98987.56;4182243;28;20052;-71
2023/04/30 00:07:55;;;;;;;24.00;15.35;;;;;;;5.15;100.00;98990.16;4184513;28;20052;-71
2023/04/30 00:09:55;;;;;;;25.88;16.77;;;;;;;5.23;100.00;98992.03;4180693;28;20044;-71
2023/04/30 00:11:56;;;;;;;24.35;15.32;;;;;;;5.24;100.00;98990.91;4181432;28;20120;-71
2023/04/30 00:13:56;;;;;;;23.42;14.63;;;;;;;5.23;100.00;98997.53;4181806;28;20049;-71
2023/04/30 00:15:56;;;;;;;23.23;14.35;;;;;;;5.19;100.00;98993.81;4186988;28;20044;-71
2023/04/30 00:17:57;;;;;;;19.70;13.68;;;;;;;5.13;100.00;98990.47;4184308;28;20377;-71
2023/04/30 00:19:57;;;;;;;23.60;14.43;;;;;;;5.09;100.00;99003.22;4183752;28;20473;-71
2023/04/30 00:22:00;;;;;;;19.15;13.23;;;;;;;5.07;100.00;99000.03;4181775;28;20049;-71
2023/04/30 00:24:00;;;;;;;24.63;14.55;;;;;;;5.04;100.00;99014.38;4182507;28;20044;-71
2023/04/30 00:26:01;;;;;;;19.38;12.50;;;;;;;4.98;100.00;99007.47;4183550;28;20147;-72
2023/04/30 00:28:01;;;;;;;20.38;13.15;;;;;;;4.95;100.00;99011.66;4185197;28;20071;-72
2023/04/30 00:30:02;;;;;;;21.60;15.00;;;;;;;4.90;100.00;99014.59;4179149;28;20025;-71
2023/04/30 00:32:02;;;;;;;21.63;14.57;;;;;;;4.91;100.00;99016.22;4183595;28;20116;-71
2023/04/30 00:34:03;;;;;;;22.08;15.45;;;;;;;4.91;100.00;99015.41;4181625;28;20039;-72
2023/04/30 00:36:04;;;;;;;21.55;14.52;;;;;;;4.91;100.00;99018.16;4186611;28;20402;-71
2023/04/30 00:38:04;;;;;;;19.65;13.35;;;;;;;4.82;100.00;99015.44;4184077;28;20421;-72
2023/04/30 00:40:05;;;;;;;21.45;14.57;;;;;;;4.81;100.00;99019.31;4185976;28;20063;-71
2023/04/30 00:42:06;;;;;;;23.02;14.35;;;;;;;4.78;100.00;99026.22;4185624;28;20385;-71
2023/04/30 00:44:06;;;;;;;23.60;15.23;;;;;;;4.78;100.00;99022.69;4182507;28;20032;-71
2023/04/30 00:46:06;;;;;;;22.58;15.40;;;;;;;4.80;100.00;99028.66;4184197;28;20060;-71
2023/04/30 00:48:07;;;;;;;20.58;14.13;;;;;;;4.79;100.00;99025.09;4180450;28;20114;-71
2023/04/30 00:50:08;;;;;;;22.27;14.15;;;;;;;4.77;100.00;99023.81;4180957;28;20055;-71
2023/04/30 00:52:09;;;;;;;19.95;13.80;;;;;;;4.76;100.00;99038.66;4188857;28;20416;-71
2023/04/30 00:54:09;;;;;;;19.90;12.85;;;;;;;4.75;100.00;99037.84;4182658;28;20028;-71
2023/04/30 00:56:13;;;;;;;20.77;13.68;;;;;;;4.71;100.00;99036.06;4181507;28;20021;-71
2023/04/30 00:58:13;;;;;;;20.27;12.90;;;;;;;4.61;100.00;99033.69;4183625;28;20036;-71
2023/04/30 01:00:14;;;;;;;20.27;13.20;;;;;;;4.57;100.00;99040.97;4183516;28;20465;-71
2023/04/30 01:02:16;;;;;;;19.20;12.48;;;;;;;4.49;100.00;99043.38;4180335;28;20322;-71
2023/04/30 01:04:17;;;;;;;22.38;14.80;;;;;;;4.51;100.00;99043.84;4180343;28;20349;-71
2023/04/30 01:06:17;;;;;;;19.40;13.77;;;;;;;4.51;100.00;99048.53;4183077;28;20038;-71
2023/04/30 01:08:17;;;;;;;19.85;13.45;;;;;;;4.50;100.00;99055.94;4183236;28;20115;-71
2023/04/30 01:10:20;;;;;;;18.25;12.95;;;;;;;4.49;100.00;99051.59;4180673;28;20037;-71
2023/04/30 01:12:48;;;;;;;21.55;14.05;;;;;;;4.54;100.00;99055.28;4183921;28;20024;-72
2023/04/30 01:15:00;;;;;;;19.92;13.10;;;;;;;4.53;100.00;99050.94;4181727;28;20465;-71
2023/04/30 01:17:22;;;;;;;15.70;11.48;;;;;;;4.49;100.00;99061.75;4181218;28;20040;-71
2023/04/30 01:19:35;;;;;;;18.27;12.52;;;;;;;4.41;100.00;99054.34;4185307;28;20055;-71
2023/04/30 01:21:40;;;;;;;17.83;12.07;;;;;;;4.27;100.00;99051.75;4183140;28;20128;-71
2023/04/30 01:23:53;;;;;;;18.90;11.48;;;;;;;4.20;100.00;99051.44;4184079;28;20487;-71
2023/04/30 01:26:06;;;;;;;16.88;11.50;;;;;;;4.05;100.00;99057.38;4182412;28;20384;-71
2023/04/30 01:28:15;;;;;;;19.00;12.98;;;;;;;3.97;100.00;99058.97;4180802;28;20045;-71
2023/04/30 01:30:17;;;;;;;23.65;14.23;;;;;;;3.95;100.00;99055.75;4179570;28;20029;-71
2023/04/30 01:32:17;;;;;;;19.40;12.63;;;;;;;3.94;100.00;99057.69;4184367;28;20514;-71
2023/04/30 01:34:17;;;;;;;17.48;11.77;;;;;;;3.93;100.00;99056.09;4185134;28;20048;-71
2023/04/30 01:36:21;;;;;;;17.08;12.07;;;;;;;3.88;100.00;99060.91;4180797;28;20453;-71
2023/04/30 01:38:49;;;;;;;16.58;11.38;;;;;;;3.81;100.00;99058.66;4182585;28;20087;-71
2023/04/30 01:40:56;;;;;;;16.80;10.70;;;;;;;3.66;100.00;99057.19;4182720;28;20076;-71
2023/04/30 01:43:18;;;;;;;18.27;11.48;;;;;;;3.60;100.00;99061.19;4181876;28;20123;-71
2023/04/30 01:45:30;;;;;;;15.30;10.40;;;;;;;3.48;100.00;99062.91;4179147;28;20454;-71
2023/04/30 01:48:08;;;;;;;16.08;10.25;;;;;;;3.43;100.00;99060.31;4180028;28;20059;-71
2023/04/30 01:50:19;;;;;;;16.63;10.32;;;;;;;3.34;100.00;99066.56;4178619;28;20399;-71
2023/04/30 01:52:28;;;;;;;18.77;11.63;;;;;;;3.28;100.00;99065.09;4178873;28;20029;-71
2023/04/30 01:54:48;;;;;;;16.02;10.52;;;;;;;3.24;100.00;99071.50;4182589;28;20353;-71
2023/04/30 01:57:26;;;;;;;15.23;10.63;;;;;;;3.20;100.00;99079.53;4182440;28;20389;-72
2023/04/30 01:59:27;;;;;;;18.63;11.18;;;;;;;3.15;100.00;99071.47;4178529;28;20070;-71
2023/04/30 02:01:29;;;;;;;18.13;11.43;;;;;;;3.12;100.00;99074.81;4183732;28;20127;-71
2023/04/30 02:03:31;;;;;;;16.98;10.57;;;;;;;3.02;100.00;99075.91;4182872;28;20036;-71
2023/04/30 02:05:32;;;;;;;18.05;11.68;;;;;;;2.93;100.00;99087.91;4182909;28;20431;-71
2023/04/30 02:07:43;;;;;;;14.70;10.02;;;;;;;2.81;100.00;99072.91;4178391;28;20116;-71
2023/04/30 02:09:44;;;;;;;18.90;11.02;;;;;;;2.75;100.00;99076.06;4183424;28;20037;-71
2023/04/30 02:11:44;;;;;;;16.30;10.85;;;;;;;2.68;100.00;99089.38;4184781;28;20072;-71
2023/04/30 02:13:44;;;;;;;16.05;10.48;;;;;;;2.60;100.00;99088.19;4179877;28;20239;-71
2023/04/30 02:15:44;;;;;;;19.42;11.20;;;;;;;2.57;100.00;99090.75;4185206;28;20040;-71
2023/04/30 02:17:45;;;;;;;17.50;11.57;;;;;;;2.48;100.00;99096.94;4178504;28;20076;-71
2023/04/30 02:19:45;;;;;;;17.92;11.70;;;;;;;2.43;100.00;99094.31;4183325;28;20120;-71
2023/04/30 02:21:45;;;;;;;18.48;12.05;;;;;;;2.40;100.00;99108.59;4183407;28;20033;-71
2023/04/30 02:23:46;;;;;;;21.35;12.18;;;;;;;2.39;100.00;99098.78;4186902;28;20076;-71
2023/04/30 02:25:46;;;;;;;18.20;11.38;;;;;;;2.39;100.00;99100.69;4185608;28;20064;-71
2023/04/30 02:27:46;;;;;;;20.25;11.55;;;;;;;2.38;100.00;99112.75;4181825;28;20119;-71
2023/04/30 02:29:47;;;;;;;20.05;13.07;;;;;;;2.39;100.00;99112.44;4181788;28;20495;-71
2023/04/30 02:31:48;;;;;;;18.10;12.23;;;;;;;2.42;100.00;99111.03;4183268;28;20746;-71
2023/04/30 02:33:48;;;;;;;23.30;13.52;;;;;;;2.42;100.00;99114.56;4180036;28;20076;-71
2023/04/30 02:35:48;;;;;;;18.85;11.50;;;;;;;2.47;100.00;99119.88;4187339;28;20413;-71
2023/04/30 02:37:49;;;;;;;24.52;12.60;;;;;;;2.51;100.00;99107.25;4182074;28;20063;-71
2023/04/30 02:39:50;;;;;;;19.27;11.63;;;;;;;2.47;100.00;99113.63;4183381;28;20076;-71
2023/04/30 02:41:50;;;;;;;16.88;11.02;;;;;;;2.45;100.00;99113.13;4183066;28;20059;-72
2023/04/30 02:43:51;;;;;;;18.60;11.57;;;;;;;2.54;100.00;99114.00;4180841;28;20049;-71
2023/04/30 02:45:51;;;;;;;18.95;10.30;;;;;;;2.68;100.00;99117.50;4181362;28;20045;-71
2023/04/30 02:47:52;;;;;;;15.40;10.30;;;;;;;2.78;100.00;99113.69;4181141;28;20485;-71
2023/04/30 02:49:52;;;;;;;16.75;10.68;;;;;;;2.95;100.00;99118.47;4180131;28;20079;-71
2023/04/30 02:51:53;;;;;;;17.23;9.85;;;;;;;3.03;100.00;99123.19;4189095;28;20094;-71
2023/04/30 02:53:53;;;;;;;22.45;11.13;;;;;;;3.09;100.00;99121.94;4177853;28;20061;-71
2023/04/30 02:55:53;;;;;;;16.92;10.75;;;;;;;3.02;100.00;99118.84;4178672;28;20095;-71
2023/04/30 02:57:54;;;;;;;18.35;11.32;;;;;;;2.86;100.00;99125.81;4177815;28;20040;-71
2023/04/30 02:59:54;;;;;;;20.17;11.60;;;;;;;2.73;100.00;99122.84;4182525;28;20036;-71
2023/04/30 03:01:54;;;;;;;16.92;10.57;;;;;;;2.65;100.00;99125.47;4185254;28;20036;-72
2023/04/30 03:03:54;;;;;;;15.02;10.52;;;;;;;2.61;100.00;99122.56;4181509;28;20507;-71
2023/04/30 03:05:58;;;;;;;18.98;10.40;;;;;;;2.66;100.00;99122.47;4185876;28;20075;-71
2023/04/30 03:07:58;;;;;;;17.15;10.82;;;;;;;2.66;100.00;99122.47;4187034;28;20049;-71
2023/04/30 03:09:58;;;;;;;18.17;11.10;;;;;;;2.70;100.00;99128.09;4184849;28;20135;-71
2023/04/30 03:11:59;;;;;;;17.40;10.88;;;;;;;2.63;100.00;99122.25;4183950;28;20453;-71
2023/04/30 03:13:59;;;;;;;15.35;10.68;;;;;;;2.60;100.00;99123.69;4181955;28;20414;-71
2023/04/30 03:16:01;;;;;;;17.92;10.15;;;;;;;2.64;100.00;99126.59;4185826;28;20068;-71
2023/04/30 03:18:01;;;;;;;14.68;9.98;;;;;;;2.62;100.00;99124.19;4181184;28;20053;-71
2023/04/30 03:20:01;;;;;;;18.90;10.27;;;;;;;2.66;100.00;99129.84;4187871;28;20054;-71
2023/04/30 03:22:02;;;;;;;16.05;10.43;;;;;;;2.65;100.00;99131.78;4185824;28;20028;-71
2023/04/30 03:24:02;;;;;;;16.40;9.73;;;;;;;2.62;100.00;99128.84;4186334;28;20021;-71
2023/04/30 03:26:02;;;;;;;13.35;9.48;;;;;;;2.61;100.00;99121.78;4186798;28;20025;-71
2023/04/30 03:28:03;;;;;;;14.73;9.48;;;;;;;2.57;100.00;99135.25;4186409;28;20281;-71
2023/04/30 03:30:04;;;;;;;15.95;9.98;;;;;;;2.44;100.00;99130.63;4184388;28;20021;-71
2023/04/30 03:32:05;;;;;;;14.82;9.05;;;;;;;2.34;100.00;99147.25;4185065;28;20030;-71
2023/04/30 03:34:05;;;;;;;15.40;9.75;;;;;;;2.25;100.00;99148.00;4182926;28;20112;-71
2023/04/30 03:36:05;;;;;;;13.20;8.80;;;;;;;2.18;100.00;99144.88;4183353;28;20490;-71
2023/04/30 03:38:06;;;;;;;16.38;10.65;;;;;;;2.14;100.00;99146.56;4182407;28;20037;-71
2023/04/30 03:40:07;;;;;;;17.17;10.43;;;;;;;2.16;100.00;99154.47;4184228;28;20478;-71
2023/04/30 03:42:07;;;;;;;16.33;9.20;;;;;;;2.20;100.00;99148.09;4185335;28;20392;-71
2023/04/30 03:44:14;;;;;;;17.13;9.77;;;;;;;2.26;100.00;99148.78;4182896;28;20294;-71
2023/04/30 03:46:14;;;;;;;14.80;9.95;;;;;;;2.22;100.00;99147.78;4181056;28;20090;-71
2023/04/30 03:48:14;;;;;;;16.42;10.13;;;;;;;2.19;100.00;99145.66;4185125;28;20036;-71
2023/04/30 03:50:17;;;;;;;16.48;10.45;;;;;;;2.21;100.00;99154.34;4188237;28;20473;-71
2023/04/30 03:52:17;;;;;;;16.63;10.32;;;;;;;2.24;100.00;99148.28;4181574;28;20037;-71
2023/04/30 03:54:17;;;;;;;15.48;10.02;;;;;;;2.22;100.00;99145.84;4185621;28;20421;-71
2023/04/30 03:56:17;;;;;;;14.65;10.00;;;;;;;2.22;100.00;99150.50;4183865;28;20068;-71
2023/04/30 03:58:18;;;;;;;16.10;10.32;;;;;;;2.21;100.00;99149.69;4181067;28;20064;-72
2023/04/30 04:00:19;;;;;;;16.88;10.32;;;;;;;2.23;100.00;99146.66;4181359;28;20037;-71
2023/04/30 04:02:20;;;;;;;14.95;10.38;;;;;;;2.26;100.00;99154.25;4185674;28;20460;-71
2023/04/30 04:04:20;;;;;;;17.38;10.63;;;;;;;2.23;100.00;99152.97;4185046;28;20863;-71
2023/04/30 04:06:21;;;;;;;16.75;10.50;;;;;;;2.25;100.00;99150.72;4185827;28;20524;-71
2023/04/30 04:08:21;;;;;;;15.45;9.77;;;;;;;2.31;100.00;99156.84;4187367;28;20041;-71
2023/04/30 04:10:21;;;;;;;18.05;11.52;;;;;;;2.34;100.00;99161.72;4186741;28;20204;-71
2023/04/30 04:12:22;;;;;;;15.25;10.40;;;;;;;2.35;100.00;99163.34;4181852;28;20037;-71
2023/04/30 04:14:22;;;;;;;17.50;10.45;;;;;;;2.38;100.00;99164.63;4183614;28;20052;-71
2023/04/30 04:16:23;;;;;;;15.60;10.32;;;;;;;2.37;100.00;99161.09;4178255;28;20088;-71
2023/04/30 04:18:23;;;;;;;18.40;11.20;;;;;;;2.35;100.00;99168.00;4187058;28;20032;-71
2023/04/30 04:20:23;;;;;;;21.27;10.95;;;;;;;2.37;100.00;99172.03;4182697;28;20041;-71
2023/04/30 04:22:24;;;;;;;15.48;10.60;;;;;;;2.37;100.00;99165.75;4185446;28;20037;-71
2023/04/30 04:24:25;;;;;;;15.40;10.13;;;;;;;2.45;100.00;99179.47;4185794;28;20053;-71
2023/04/30 04:26:27;;;;;;;14.73;10.52;;;;;;;2.52;100.00;99174.41;4181043;28;20282;-71
2023/04/30 04:28:27;;;;;;;15.75;10.27;;;;;;;2.57;100.00;99170.78;4185564;28;20469;-71
2023/04/30 04:30:28;;;;;;;19.85;10.45;;;;;;;2.61;100.00;99173.69;4181649;28;20052;-72
2023/04/30 04:32:29;;;;;;;15.85;9.63;;;;;;;2.64;100.00;99173.06;4182949;28;20033;-71
2023/04/30 04:34:29;;;;;;;13.65;9.52;;;;;;;2.68;100.00;99171.34;4184024;28;20071;-71
2023/04/30 04:36:32;;;;;;;15.25;9.38;;;;;;;2.72;100.00;99173.13;4184596;28;20477;-71
2023/04/30 04:38:32;;;;;;;15.02;9.32;;;;;;;2.81;100.00;99167.72;4178755;28;20068;-71
2023/04/30 04:40:34;;;;;;;13.10;8.98;;;;;;;2.89;100.00;99171.63;4183820;28;20055;-72
2023/04/30 04:42:34;;;;;;;13.47;9.00;;;;;;;3.00;100.00;99178.50;4182798;28;20453;-71
2023/04/30 04:44:35;;;;;;;18.05;11.02;;;;;;;3.08;100.00;99167.63;4180982;28;20075;-71
2023/04/30 04:46:37;;;;;;;17.48;11.23;;;;;;;3.14;100.00;99175.66;4186160;28;20121;-71
2023/04/30 04:48:37;;;;;;;18.23;10.25;;;;;;;3.15;100.00;99178.13;4184634;28;20036;-71
2023/04/30 04:50:37;;;;;;;16.15;10.02;;;;;;;3.18;100.00;99179.41;4180315;28;20486;-71
2023/04/30 04:52:38;;;;;;;18.45;11.80;;;;;;;3.20;100.00;99177.16;4186015;28;20350;-71
2023/04/30 04:54:38;;;;;;;15.18;10.63;;;;;;;3.24;100.00;99181.72;4178442;28;20036;-71
2023/04/30 04:56:38;;;;;;;19.30;11.27;;;;;;;3.29;100.00;99181.56;4185313;28;20056;-71
2023/04/30 04:58:40;;;;;;;17.00;10.73;;;;;;;3.32;100.00;99177.41;4179785;28;20063;-71
2023/04/30 05:00:40;;;;;;;15.80;9.85;;;;;;;3.36;100.00;99181.13;4182064;28;20044;-71
2023/04/30 05:02:41;;;;;;;16.15;9.65;;;;;;;3.40;100.00;99184.88;4182742;28;20521;-71
2023/04/30 05:04:41;;;;;;;15.88;10.40;;;;;;;3.43;100.00;99177.94;4184794;28;20037;-71
2023/04/30 05:06:42;;;;;;;17.65;10.25;;;;;;;3.46;100.00;99186.31;4181026;28;20119;-71
2023/04/30 05:08:42;;;;;;;16.10;10.07;;;;;;;3.45;100.00;99187.44;4178626;28;20139;-71
2023/04/30 05:10:42;;;;;;;15.10;10.30;;;;;;;3.47;100.00;99185.19;4183251;28;20436;-71
2023/04/30 05:12:43;;;;;;;14.95;10.15;;;;;;;3.49;100.00;99182.19;4183908;28;20441;-71
2023/04/30 05:14:43;;;;;;;16.48;10.10;;;;;;;3.50;100.00;99186.53;4183320;28;20083;-71
2023/04/30 05:16:44;;;;;;;14.75;9.43;;;;;;;3.52;100.00;99184.28;4182846;28;20101;-71
2023/04/30 05:18:44;;;;;;;14.90;9.68;;;;;;;3.55;100.00;99184.44;4180734;28;20033;-71
2023/04/30 05:20:45;;;;;;;12.63;9.40;;;;;;;3.56;100.00;99196.22;4180961;28;20040;-71
2023/04/30 05:22:45;;;;;;;14.75;9.43;;;;;;;3.60;100.00;99186.25;4183537;28;20448;-71
2023/04/30 05:24:45;;;;;;;13.98;9.10;;;;;;;3.69;100.00;99184.34;4182628;28;20119;-71
2023/04/30 05:26:46;;;;;;;13.70;9.20;;;;;;;3.78;100.00;99192.59;4180205;28;20069;-71
2023/04/30 05:28:46;;;;;;;15.82;10.00;;;;;;;3.86;100.00;99189.09;4182053;28;20112;-71
2023/04/30 05:30:46;;;;;;;15.50;9.40;;;;;;;3.95;100.00;99193.47;4182253;28;20044;-71
2023/04/30 05:32:49;;;;;;;12.35;8.82;;;;;;;4.06;100.00;99196.75;4184992;28;20119;-71
2023/04/30 05:34:49;;;;;;;13.90;9.73;;;;;;;4.15;100.00;99194.84;4181599;28;20048;-71
2023/04/30 05:36:50;;;;;;;14.23;9.48;;;;;;;4.23;100.00;99187.78;4183927;28;20056;-71
2023/04/30 05:38:50;;;;;;;15.05;9.45;;;;;;;4.33;100.00;99201.16;4182322;28;20047;-71
2023/04/30 05:40:51;;;;;;;16.15;10.68;;;;;;;4.41;100.00;99196.81;4185498;28;20045;-71
2023/04/30 05:42:51;;;;;;;15.15;10.40;;;;;;;4.49;100.00;99198.78;4182052;28;20068;-71
2023/04/30 05:44:51;;;;;;;13.00;9.10;;;;;;;4.55;100.00;99199.41;4185848;28;20358;-71
2023/04/30 05:46:52;;;;;;;14.32;9.18;;;;;;;4.62;100.00;99199.75;4180702;28;20052;-71
2023/04/30 05:48:52;;;;;;;15.77;9.52;;;;;;;4.64;100.00;99208.47;4179396;28;20036;-71
2023/04/30 05:50:52;;;;;;;15.00;9.70;;;;;;;4.71;100.00;99206.03;4182628;28;20028;-71
2023/04/30 05:52:53;;;;;;;18.05;10.68;;;;;;;4.76;100.00;99203.16;4180129;28;20064;-71
2023/04/30 05:54:53;;;;;;;12.70;8.77;;;;;;;4.84;100.00;99207.81;4183284;28;20457;-71
2023/04/30 05:56:53;;;;;;;15.02;9.38;;;;;;;4.92;100.00;99206.22;4186656;28;20095;-72
2023/04/30 05:58:54;;;;;;;15.90;9.32;;;;;;;4.97;100.00;99201.38;4184980;28;20143;-71
2023/04/30 06:00:54;;;;;;;14.15;9.02;;;;;;;5.08;100.00;99213.63;4179141;28;20052;-71
2023/04/30 06:02:54;;;;;;;16.33;9.73;;;;;;;5.13;100.00;99207.19;4182742;28;20044;-71
2023/04/30 06:04:55;;;;;;;13.90;9.35;;;;;;;5.17;100.00;99202.66;4176110;28;20532;-71
2023/04/30 06:06:55;;;;;;;13.68;8.95;;;;;;;5.17;100.00;99210.88;4185251;28;20438;-71
2023/04/30 06:08:56;;;;;;;13.90;9.13;;;;;;;5.19;100.00;99207.81;4178480;28;20055;-71
2023/04/30 06:10:56;;;;;;;13.20;8.80;;;;;;;5.24;100.00;99210.38;4182456;28;20048;-71
2023/04/30 06:12:57;;;;;;;18.05;10.70;;;;;;;5.28;100.00;99206.66;4182847;28;20052;-71
2023/04/30 06:14:57;;;;;;;16.75;10.23;;;;;;;5.38;100.00;99207.44;4183455;28;20041;-71
2023/04/30 06:16:58;;;;;;;14.18;9.85;;;;;;;5.47;100.00;99202.78;4178875;28;21125;-71
2023/04/30 06:18:58;;;;;;;14.93;10.48;;;;;;;5.50;100.00;99202.09;4180793;28;20044;-71
2023/04/30 06:20:58;;;;;;;15.48;10.43;;;;;;;5.56;100.00;99206.28;4181280;28;20044;-71
2023/04/30 06:23:01;;;;;;;21.60;11.25;;;;;;;5.62;100.00;99200.28;4180485;28;20238;-71
2023/04/30 06:25:02;;;;;;;16.35;9.70;;;;;;;5.68;100.00;99211.09;4184400;28;20562;-71
2023/04/30 06:27:02;;;;;;;17.35;10.68;;;;;;;5.73;100.00;99210.94;4187632;28;20492;-71
2023/04/30 06:29:04;;;;;;;15.35;9.25;;;;;;;5.78;100.00;99210.72;4184353;28;20419;-71
2023/04/30 06:31:04;;;;;;;17.33;10.93;;;;;;;5.82;100.00;99209.75;4182471;28;20630;-71
2023/04/30 06:33:04;;;;;;;25.30;12.73;;;;;;;5.89;100.00;99196.31;4179463;28;20116;-71
2023/04/30 06:35:05;;;;;;;18.45;10.48;;;;;;;5.94;100.00;99211.84;4180893;28;20416;-71
2023/04/30 06:37:06;;;;;;;14.73;9.90;;;;;;;6.04;100.00;99202.41;4176531;28;20065;-72
2023/04/30 06:39:06;;;;;;;15.82;11.13;;;;;;;6.13;100.00;99205.94;4187426;28;20072;-71
2023/04/30 06:41:06;;;;;;;13.57;10.20;;;;;;;6.17;100.00;99207.69;4185705;28;20083;-71
2023/04/30 06:43:07;;;;;;;16.27;10.52;;;;;;;6.20;100.00;99215.25;4184768;28;20033;-71
2023/04/30 06:45:07;;;;;;;19.10;11.25;;;;;;;6.23;100.00;99213.81;4187737;28;20051;-71
2023/04/30 06:47:08;;;;;;;20.95;11.70;;;;;;;6.28;100.00;99219.09;4190019;28;20071;-71
2023/04/30 06:49:08;;;;;;;18.35;11.65;;;;;;;6.34;100.00;99206.00;4173777;27;20047;-71
2023/04/30 06:51:09;;;;;;;13.93;9.75;;;;;;;6.45;100.00;99212.69;4190978;28;20365;-71
2023/04/30 06:53:10;;;;;;;18.20;11.40;;;;;;;6.56;100.00;99218.63;4186025;28;20400;-71
2023/04/30 06:55:11;;;;;;;18.08;10.80;;;;;;;6.63;100.00;99214.22;4188071;28;20073;-71
2023/04/30 06:57:11;;;;;;;15.27;10.07;;;;;;;6.67;100.00;99220.66;4186434;28;20040;-71
2023/04/30 06:59:11;;;;;;;17.17;10.00;;;;;;;6.75;100.00;99219.78;4186668;28;20500;-71
2023/04/30 07:01:12;;;;;;;14.15;9.88;;;;;;;6.79;100.00;99216.38;4187582;28;20490;-71
2023/04/30 07:03:12;;;;;;;13.18;9.55;;;;;;;6.79;100.00;99219.94;4186397;28;20139;-71
2023/04/30 07:05:13;;;;;;;16.10;10.27;;;;;;;6.84;100.00;99216.97;4183567;28;20420;-71
2023/04/30 07:07:13;;;;;;;14.63;9.90;;;;;;;6.90;100.00;99218.38;4183891;28;20056;-71
2023/04/30 07:09:14;;;;;;;12.75;9.52;;;;;;;6.95;100.00;99218.19;4188117;28;20041;-71
2023/04/30 07:11:14;;;;;;;14.52;9.80;;;;;;;7.00;100.00;99220.72;4181896;28;20828;-71
2023/04/30 07:13:15;;;;;;;17.25;9.80;;;;;;;7.07;100.00;99220.19;4188483;27;20353;-71
2023/04/30 07:15:15;;;;;;;13.57;8.93;;;;;;;7.15;100.00;99213.81;4187971;27;20048;-71
2023/04/30 07:17:16;;;;;;;14.00;8.68;;;;;;;7.22;100.00;99219.59;4181954;28;20076;-71
2023/04/30 07:19:16;;;;;;;10.40;7.38;;;;;;;7.23;100.00;99207.44;4183317;28;20400;-71
2023/04/30 07:21:16;;;;;;;13.10;8.00;;;;;;;7.34;100.00;99216.06;4188240;28;20804;-71
2023/04/30 07:23:17;;;;;;;10.32;7.55;;;;;;;7.31;100.00;99217.56;4181409;28;20136;-71
2023/04/30 07:25:17;;;;;;;11.98;8.45;;;;;;;7.33;100.00;99220.75;4190856;28;20044;-71
2023/04/30 07:27:17;;;;;;;11.88;7.82;;;;;;;7.23;100.00;99223.94;4183076;28;20510;-71
2023/04/30 07:29:18;;;;;;;11.32;7.50;;;;;;;7.34;100.00;99224.31;4189149;28;20128;-71
2023/04/30 07:31:19;;;;;;;10.40;7.63;;;;;;;7.44;100.00;99228.59;4183047;28;20136;-71
2023/04/30 07:33:19;;;;;;;10.52;7.65;;;;;;;7.48;100.00;99224.03;4186764;28;20102;-71
2023/04/30 07:35:19;;;;;;;10.27;7.47;;;;;;;7.57;100.00;99227.50;4187734;28;20040;-71
2023/04/30 07:37:20;;;;;;;9.13;7.45;;;;;;;7.65;100.00;99226.59;4189212;28;20127;-71
2023/04/30 07:39:21;;;;;;;12.60;8.57;;;;;;;7.70;100.00;99223.66;4190060;28;20082;-71
2023/04/30 07:41:21;;;;;;;16.23;8.32;;;;;;;7.78;100.00;99219.19;4182851;28;20101;-71
2023/04/30 07:43:21;;;;;;;17.80;9.40;;;;;;;7.86;100.00;99221.84;4188825;28;20064;-71
2023/04/30 07:45:22;;;;;;;14.13;9.27;;;;;;;7.94;100.00;99219.31;4189139;28;20125;-71
2023/04/30 07:47:22;;;;;;;17.00;10.35;;;;;;;7.86;100.00;99223.75;4187084;28;20049;-71
2023/04/30 07:49:24;;;;;;;11.90;8.50;;;;;;;7.95;100.00;99226.44;4188444;28;20051;-71
2023/04/30 07:51:25;;;;;;;11.00;7.47;;;;;;;8.02;100.00;99218.41;4179865;28;20057;-71
2023/04/30 07:53:26;;;;;;;17.73;10.27;;;;;;;7.99;100.00;99225.41;4182571;28;20495;-71
2023/04/30 07:55:26;;;;;;;15.32;9.00;;;;;;;8.00;100.00;99221.50;4185625;28;20048;-71
2023/04/30 07:57:26;;;;;;;10.43;7.88;;;;;;;8.10;100.00;99228.50;4188321;28;20079;-71
2023/04/30 07:59:27;;;;;;;13.43;8.98;;;;;;;8.22;100.00;99228.53;4186563;28;20121;-71
2023/04/30 08:01:27;;;;;;;11.55;8.48;;;;;;;8.21;100.00;99215.09;4184793;28;20037;-71
2023/04/30 08:03:28;;;;;;;12.80;8.48;;;;;;;8.18;100.00;99233.91;4184443;28;20049;-71
2023/04/30 08:05:28;;;;;;;11.57;8.38;;;;;;;8.24;100.00;99220.72;4185050;28;20079;-71
2023/04/30 08:07:28;;;;;;;11.85;8.57;;;;;;;8.27;100.00;99230.25;4182380;28;20041;-71
2023/04/30 08:09:29;;;;;;;11.85;7.25;;;;;;;8.29;100.00;99227.97;4185146;28;20049;-71
2023/04/30 08:11:29;;;;;;;15.80;8.48;;;;;;;8.36;100.00;99240.06;4179907;28;20122;-71
2023/04/30 08:13:30;;;;;;;10.90;8.45;;;;;;;8.41;100.00;99233.50;4181656;28;20041;-71
2023/04/30 08:15:32;;;;;;;15.63;9.02;;;;;;;8.48;100.00;99242.00;4179730;28;20084;-71
2023/04/30 08:17:33;;;;;;;12.65;8.50;;;;;;;8.33;100.00;99232.44;4185163;28;20394;-71
2023/04/30 08:19:34;;;;;;;12.23;8.23;;;;;;;8.45;100.00;99228.91;4183225;28;20548;-71
2023/04/30 08:21:34;;;;;;;13.02;8.05;;;;;;;8.60;100.00;99235.66;4182593;28;20037;-71
2023/04/30 08:23:35;;;;;;;14.10;8.18;;;;;;;8.71;100.00;99232.09;4184872;28;20109;-71
2023/04/30 08:25:35;;;;;;;12.23;8.02;;;;;;;8.79;100.00;99230.38;4187065;28;20045;-71
2023/04/30 08:27:36;;;;;;;13.15;8.63;;;;;;;8.91;100.00;99224.00;4179843;28;20045;-71
2023/04/30 08:29:36;;;;;;;13.35;8.55;;;;;;;8.95;100.00;99233.19;4182775;28;20393;-71
2023/04/30 08:31:37;;;;;;;11.55;8.02;;;;;;;8.98;100.00;99229.75;4181351;28;20044;-71
2023/04/30 08:33:37;;;;;;;11.45;8.10;;;;;;;9.00;100.00;99235.69;4183604;28;20049;-71
2023/04/30 08:35:37;;;;;;;12.27;7.90;;;;;;;8.83;100.00;99220.22;4185435;28;20048;-71
2023/04/30 08:37:37;;;;;;;10.63;8.23;;;;;;;8.91;100.00;99221.25;4181080;28;20465;-71
2023/04/30 08:39:38;;;;;;;11.30;7.43;;;;;;;9.05;100.00;99229.94;4184792;28;20044;-71
2023/04/30 08:41:39;;;;;;;11.48;7.72;;;;;;;9.06;100.00;99226.03;4181131;28;20041;-71
2023/04/30 08:43:40;;;;;;;13.88;7.82;;;;;;;9.20;100.00;99226.44;4183514;28;20476;-71
2023/04/30 08:45:41;;;;;;;15.45;8.40;;;;;;;9.44;100.00;99233.03;4183043;28;20037;-71
2023/04/30 08:47:43;;;;;;;11.52;7.88;;;;;;;9.67;100.00;99223.00;4182625;28;20604;-71
2023/04/30 08:49:44;;;;;;;10.50;7.60;;;;;;;9.93;100.00;99221.69;4182298;28;20385;-71
2023/04/30 08:51:46;;;;;;;10.13;7.57;;;;;;;10.07;100.00;99216.53;4184944;28;20491;-71
2023/04/30 08:53:49;;;;;;;11.77;7.90;;;;;;;10.09;100.00;99219.75;4181133;28;20563;-71
2023/04/30 08:55:50;;;;;;;10.50;6.82;;;;;;;10.19;100.00;99218.44;4185018;28;20076;-71
2023/04/30 08:57:50;;;;;;;10.25;6.70;;;;;;;10.31;100.00;99229.41;4180910;28;20131;-71
2023/04/30 08:59:50;;;;;;;11.15;7.90;;;;;;;10.28;100.00;99227.38;4181089;28;20035;-71
2023/04/30 09:01:51;;;;;;;11.77;8.23;;;;;;;10.19;100.00;99229.50;4185165;28;20064;-71
2023/04/30 09:03:51;;;;;;;11.45;7.68;;;;;;;10.30;100.00;99214.78;4182777;28;20049;-71
2023/04/30 09:05:51;;;;;;;8.63;6.80;;;;;;;10.20;100.00;99217.25;4184508;28;20044;-71
2023/04/30 09:07:52;;;;;;;13.27;7.53;;;;;;;10.03;99.50;99226.72;4181406;28;20044;-71
2023/04/30 09:09:52;;;;;;;12.25;7.97;;;;;;;10.09;100.00;99225.28;4183731;28;20243;-71
2023/04/30 09:12:05;;;;;;;10.25;6.32;;;;;;;10.12;100.00;99224.56;4184615;28;20536;-71
2023/04/30 09:14:07;;;;;;;11.15;7.50;;;;;;;10.28;100.00;99222.63;4180738;28;20040;-71
2023/04/30 09:16:07;;;;;;;12.02;6.82;;;;;;;10.40;100.00;99225.28;4183254;28;20399;-71
2023/04/30 09:18:17;;;;;;;12.48;7.55;;;;;;;10.22;100.00;99223.22;4182862;28;20115;-71
2023/04/30 09:20:17;;;;;;;13.52;7.05;;;;;;;10.28;100.00;99221.84;4181464;28;20032;-71
2023/04/30 09:22:23;;;;;;;9.85;7.25;;;;;;;10.37;100.00;99220.50;4183737;28;20198;-72